Quick Links (Output Below):   Max & Min Temps   /   Climate Reports   /   Zone Forecasts
River Forecasts   /   Forestry Forecasts   /   Aviation Forecasts   /   Radars   /   Features

Terminal Aerodrome Forecast (Harrison)

Pick a Site:
Arkadelphia | El Dorado | Fayetteville | Fort Smith | Harrison | Highfill | Hot Springs | Jonesboro
Little Rock | Monticello | Mountain Home | Pine Bluff | Texarkana
 Forecast 

KHRO 292336Z 3000/3024 32010KT P6SM BKN120
     FM300100 31005KT P6SM BKN120
     FM300500 31004KT P6SM SKC
     FM301500 14007KT P6SM SKC=


 Latest METARs (Observations) 
How to Decode METARs
23Z KHRO 292253Z AUTO 30010KT 10SM CLR 19/07 A3002 RMK AO2 SLP163
         T01890067
         
22Z KHRO 292153Z AUTO 32012G18KT 10SM CLR 21/07 A2998 RMK AO2 SLP151
         T02060067
         
21Z KHRO 292053Z AUTO 27007KT 10SM CLR 22/06 A2996 RMK AO2 SLP144
         T02220061 56021
         
20Z KHRO 291953Z AUTO 15005KT 10SM CLR 22/07 A2997 RMK AO2 SLP144
         T02220067
         
19Z KHRO 291853Z AUTO 10005KT 10SM CLR 19/06 A3001 RMK AO2 SLP160
         T01940061
         
18Z KHRO 291753Z AUTO 16010KT 10SM CLR 18/06 A3003 RMK AO2 SLP167
         T01780056 10178 20033 58007
         
17Z KHRO 291653Z AUTO 12008KT 10SM CLR 16/05 A3005 RMK AO2 SLP175
         T01560050
         
16Z KHRO 291553Z AUTO 16017G21KT 10SM CLR 14/04 A3004 RMK AO2 SLP173
         T01390044
         
15Z KHRO 291453Z AUTO 15014KT 10SM CLR 11/02 A3005 RMK AO2 SLP177
         T01110017 58007
         
14Z KHRO 291353Z AUTO 15017G24KT 10SM CLR 07/M01 A3005 RMK AO2 PK WND
         14028/1308 SLP180 T00721006
         
***** Today's Observations (Above) *****


Back to Main Page
http://www.srh.noaa.gov/lzk/qfcst.php

USA.gov is the U.S. government's official web portal to all federal, state and local government web resources and services.